Time;durP1;ratioP1;P1;durP2;ratioP2;P2;SDS_P1;SDS_P2;PMS_P1;PMS_P2;Temp;Humidity;BMP_temperature;BMP_pressure;BME280_temperature;BME280_humidity;BME280_pressure;Samples;Min_cycle;Max_cycle;Signal;HPM_P1;HPM_P2
2022/08/12 00:43:40;;;;;;;1.10;1.00;;;12.40;59.20;;;;;;5013844;28;20199;-38
2022/08/12 00:48:58;;;;;;;1.85;1.10;;;12.50;59.10;;;;;;5012599;28;20230;-38
2022/08/12 00:52:04;;;;;;;1.50;1.15;;;12.50;58.90;;;;;;5030873;28;20636;-38
2022/08/12 00:54:21;;;;;;;1.58;1.00;;;12.60;59.00;;;;;;5033717;28;20291;-38
2022/08/12 00:56:55;;;;;;;1.65;1.10;;;12.60;58.90;;;;;;5022218;28;20232;-38
2022/08/12 00:59:26;;;;;;;1.30;1.05;;;12.60;58.90;;;;;;5033364;28;20194;-37
2022/08/12 01:01:58;;;;;;;2.17;1.08;;;12.60;58.90;;;;;;5013946;28;20233;-38
2022/08/12 01:12:56;;;;;;;1.77;1.20;;;12.80;59.00;;;;;;5016169;28;20683;-39
2022/08/12 01:15:27;;;;;;;1.77;1.00;;;12.80;58.90;;;;;;5032707;28;20652;-38
2022/08/12 01:17:58;;;;;;;1.63;1.20;;;12.90;58.90;;;;;;5032821;28;20726;-38
2022/08/12 01:20:40;;;;;;;1.38;1.00;;;12.90;58.90;;;;;;5032371;28;20188;-38
2022/08/12 01:23:47;;;;;;;1.90;1.25;;;12.90;58.90;;;;;;5031732;28;20200;-37
2022/08/12 01:26:22;;;;;;;2.17;1.30;;;13.00;58.90;;;;;;5032056;28;20216;-38
2022/08/12 01:28:57;;;;;;;1.77;1.20;;;13.00;58.80;;;;;;5032738;28;20227;-41
2022/08/12 01:31:30;;;;;;;1.98;1.10;;;13.00;58.80;;;;;;5032397;28;20215;-43
2022/08/12 01:34:06;;;;;;;2.10;1.40;;;13.00;58.80;;;;;;5031411;28;20599;-41
2022/08/12 01:36:43;;;;;;;1.50;0.88;;;13.00;58.70;;;;;;5011283;28;20683;-41
2022/08/12 01:39:16;;;;;;;1.52;1.08;;;13.10;58.80;;;;;;5012435;28;20207;-38
2022/08/12 01:41:55;;;;;;;1.50;0.90;;;13.10;58.70;;;;;;5029295;28;20192;-38
2022/08/12 01:44:27;;;;;;;2.53;1.30;;;13.10;58.60;;;;;;5032309;28;20204;-39
2022/08/12 01:47:05;;;;;;;1.70;1.00;;;13.20;58.60;;;;;;5031552;28;20301;-38
2022/08/12 01:49:56;;;;;;;1.27;1.00;;;13.30;58.70;;;;;;5031688;28;20227;-38
2022/08/12 01:52:43;;;;;;;1.33;1.13;;;13.20;58.60;;;;;;5031217;28;20196;-38
2022/08/12 01:55:17;;;;;;;2.70;1.10;;;13.30;58.60;;;;;;5029210;28;20193;-38
2022/08/12 01:57:52;;;;;;;1.13;0.98;;;13.30;58.50;;;;;;5012918;28;20201;-39
2022/08/12 02:00:23;;;;;;;1.15;0.90;;;13.40;58.60;;;;;;5016350;28;20558;-38
2022/08/12 02:03:03;;;;;;;1.73;1.10;;;13.40;58.60;;;;;;5032719;28;20192;-38
2022/08/12 02:11:27;;;;;;;1.45;0.80;;;13.50;58.90;;;;;;5020160;28;20200;-38
2022/08/12 02:14:32;;;;;;;1.50;0.93;;;13.50;59.00;;;;;;5023339;28;20246;-38
2022/08/12 02:17:21;;;;;;;1.08;0.80;;;13.60;59.10;;;;;;5028387;28;20220;-43
2022/08/12 02:20:06;;;;;;;2.58;1.10;;;13.60;58.90;;;;;;5030950;28;20196;-38
2022/08/12 02:22:40;;;;;;;1.25;0.90;;;13.70;58.90;;;;;;5011594;28;20215;-42
2022/08/12 02:25:14;;;;;;;1.10;1.00;;;13.70;58.70;;;;;;5012375;28;20200;-38
2022/08/12 02:27:47;;;;;;;1.15;1.00;;;13.80;58.70;;;;;;5012002;28;20228;-40
2022/08/12 02:30:21;;;;;;;1.15;0.90;;;13.80;58.70;;;;;;5014079;28;20224;-41
2022/08/12 02:32:53;;;;;;;1.60;0.90;;;13.80;58.60;;;;;;5032179;28;20199;-40
2022/08/12 02:35:26;;;;;;;1.50;0.80;;;13.90;58.50;;;;;;5031803;28;20203;-41
2022/08/12 02:37:59;;;;;;;1.20;1.10;;;13.90;58.40;;;;;;5028506;28;20211;-38
2022/08/12 02:40:31;;;;;;;2.05;1.00;;;14.00;58.50;;;;;;5014875;28;20197;-38
2022/08/12 02:43:05;;;;;;;1.55;1.10;;;14.00;58.40;;;;;;5032327;28;20659;-40
2022/08/12 02:45:40;;;;;;;1.50;0.88;;;14.00;58.40;;;;;;5031098;28;20208;-38
2022/08/12 02:48:13;;;;;;;1.55;1.17;;;14.10;58.30;;;;;;5030504;28;20199;-38
2022/08/12 02:50:51;;;;;;;2.05;1.00;;;14.10;58.30;;;;;;5029142;28;20210;-41
2022/08/12 02:53:23;;;;;;;1.48;0.88;;;14.10;58.20;;;;;;5031221;28;20207;-38
2022/08/12 02:55:54;;;;;;;1.73;1.15;;;14.20;58.10;;;;;;5030567;28;20254;-40
2022/08/12 02:58:26;;;;;;;2.05;0.90;;;14.20;58.00;;;;;;5031372;28;20643;-38
2022/08/12 03:01:00;;;;;;;1.30;1.20;;;14.20;57.90;;;;;;5031351;28;20192;-38
2022/08/12 03:03:33;;;;;;;1.20;1.10;;;14.30;57.90;;;;;;5029997;28;20195;-38
2022/08/12 03:06:05;;;;;;;1.88;1.05;;;14.30;57.80;;;;;;5017025;28;20689;-38
2022/08/12 03:08:42;;;;;;;1.58;1.00;;;14.40;57.90;;;;;;5030925;28;20686;-41
2022/08/12 03:11:20;;;;;;;1.98;1.40;;;14.40;57.80;;;;;;5031526;28;20196;-39
2022/08/12 03:13:56;;;;;;;1.45;1.00;;;14.40;57.70;;;;;;5020814;28;20667;-50
2022/08/12 03:16:31;;;;;;;1.40;1.20;;;14.40;57.70;;;;;;5011205;28;20216;-38
2022/08/12 03:19:02;;;;;;;1.90;1.33;;;14.50;58.20;;;;;;5011004;28;20204;-39
2022/08/12 03:21:36;;;;;;;1.67;0.90;;;14.50;57.60;;;;;;5019918;28;20250;-38
2022/08/12 03:24:09;;;;;;;1.67;1.20;;;14.50;57.50;;;;;;5029401;28;20231;-41
2022/08/12 03:26:41;;;;;;;1.40;1.15;;;14.50;57.50;;;;;;5020649;28;20283;-41
2022/08/12 03:29:17;;;;;;;1.58;1.17;;;14.50;57.40;;;;;;5010644;28;20311;-42
2022/08/12 03:31:54;;;;;;;1.25;0.90;;;14.60;57.50;;;;;;5021392;28;20196;-38
2022/08/12 03:34:28;;;;;;;1.08;0.95;;;14.60;57.50;;;;;;5029287;28;20621;-45
2022/08/12 03:37:01;;;;;;;1.90;1.00;;;14.60;57.40;;;;;;5029841;28;20216;-45
2022/08/12 03:39:40;;;;;;;1.95;1.38;;;14.60;57.40;;;;;;5030760;28;20637;-49
2022/08/12 03:42:27;;;;;;;1.17;1.08;;;14.70;57.40;;;;;;5029764;28;20202;-49
2022/08/12 04:02:07;;;;;;;2.42;1.85;;;14.80;57.00;;;;;;5010918;28;20300;-39
2022/08/12 04:04:43;;;;;;;1.80;1.35;;;14.80;57.40;;;;;;5010722;28;20284;-39
2022/08/12 04:07:15;;;;;;;2.72;1.63;;;14.90;57.90;;;;;;5010604;28;20221;-38
2022/08/12 04:09:49;;;;;;;2.13;1.50;;;15.00;57.90;;;;;;5010163;28;20220;-43
2022/08/12 04:15:07;;;;;;;1.65;1.20;;;15.00;57.50;;;;;;5011092;28;20270;-42
2022/08/12 04:17:38;;;;;;;2.40;1.50;;;15.10;57.40;;;;;;5016073;28;20201;-44
2022/08/12 04:20:13;;;;;;;2.50;1.30;;;15.10;57.30;;;;;;5016837;28;20623;-47
2022/08/12 04:22:43;;;;;;;2.30;1.70;;;15.10;57.10;;;;;;5026258;28;20212;-47
2022/08/12 04:25:15;;;;;;;1.80;1.45;;;15.10;57.10;;;;;;5023034;28;20215;-41
2022/08/12 04:27:48;;;;;;;2.58;1.23;;;15.20;57.10;;;;;;5025936;28;20208;-43
2022/08/12 04:30:19;;;;;;;2.38;1.50;;;15.20;57.10;;;;;;5016308;28;20232;-44
2022/08/12 04:32:50;;;;;;;2.35;1.42;;;15.20;57.10;;;;;;5017282;28;20200;-49
2022/08/12 04:35:24;;;;;;;1.98;1.40;;;15.20;57.10;;;;;;5016609;28;20201;-41
2022/08/12 04:37:55;;;;;;;1.83;1.55;;;15.20;57.00;;;;;;5017158;28;20197;-38
2022/08/12 04:40:28;;;;;;;1.50;1.40;;;15.20;57.00;;;;;;5027717;28;20659;-41
2022/08/12 04:42:59;;;;;;;2.75;1.70;;;15.20;57.00;;;;;;5019758;28;20267;-50
2022/08/12 04:45:31;;;;;;;5.03;1.90;;;15.20;57.00;;;;;;5032027;28;20251;-42
2022/08/12 04:48:02;;;;;;;2.80;2.15;;;15.20;57.00;;;;;;5019293;28;20192;-41
2022/08/12 04:50:35;;;;;;;2.95;2.10;;;15.20;57.50;;;;;;5016922;28;20318;-44
2022/08/12 04:53:08;;;;;;;2.85;1.60;;;15.20;56.90;;;;;;5030760;28;20207;-46
2022/08/12 04:55:41;;;;;;;4.22;1.88;;;15.30;56.90;;;;;;5036473;28;20212;-41
2022/08/12 04:58:13;;;;;;;4.38;1.88;;;15.20;56.30;;;;;;5036584;28;20553;-40
2022/08/12 05:00:44;;;;;;;4.40;1.80;;;15.20;55.30;;;;;;5036892;28;20196;-41
2022/08/12 05:03:14;;;;;;;4.38;1.55;;;15.20;54.50;;;;;;5036121;28;20206;-40
2022/08/12 05:05:47;;;;;;;5.10;1.90;;;15.20;53.40;;;;;;5036556;28;20215;-41
2022/08/12 05:08:20;;;;;;;5.15;2.58;;;15.10;52.90;;;;;;5036139;28;20192;-39
2022/08/12 05:10:51;;;;;;;6.18;4.13;;;15.00;52.50;;;;;;5036441;28;20220;-43
2022/08/12 05:13:23;;;;;;;7.40;3.63;;;15.00;52.40;;;;;;5036515;28;20618;-37
2022/08/12 05:15:55;;;;;;;11.35;8.77;;;14.90;52.10;;;;;;5033858;28;20216;-55
2022/08/12 05:18:25;;;;;;;16.15;10.95;;;14.80;52.10;;;;;;5016318;28;20203;-36
2022/08/12 05:20:59;;;;;;;10.25;9.25;;;14.80;52.10;;;;;;5015860;28;20199;-37
2022/08/12 05:23:32;;;;;;;22.88;16.95;;;14.70;52.00;;;;;;5035891;28;20196;-36
2022/08/12 05:26:04;;;;;;;20.52;15.65;;;14.60;52.00;;;;;;5036107;28;20216;-38
2022/08/12 05:28:36;;;;;;;22.70;16.42;;;14.60;52.00;;;;;;5032348;28;20208;-38
2022/08/12 05:31:07;;;;;;;20.23;14.65;;;14.50;51.90;;;;;;5032354;28;20231;-37
2022/08/12 05:33:41;;;;;;;16.73;12.32;;;14.40;51.80;;;;;;5014202;28;20201;-37
2022/08/12 05:36:18;;;;;;;20.45;12.48;;;14.40;51.80;;;;;;5014513;28;20259;-40
2022/08/12 05:38:59;;;;;;;21.00;13.70;;;14.30;51.70;;;;;;5016626;28;20196;-36
2022/08/12 05:41:31;;;;;;;19.33;13.18;;;14.20;51.50;;;;;;5014183;28;20211;-37
2022/08/12 05:44:02;;;;;;;13.68;11.82;;;14.20;51.50;;;;;;5032923;28;20207;-36
2022/08/12 05:46:34;;;;;;;15.93;13.52;;;14.10;51.40;;;;;;5033002;28;20228;-36
2022/08/12 05:49:05;;;;;;;13.55;12.18;;;13.90;51.30;;;;;;5032290;28;20196;-44
2022/08/12 05:51:39;;;;;;;12.82;11.10;;;13.80;51.50;;;;;;5032602;28;20279;-39
2022/08/12 05:54:11;;;;;;;12.88;10.15;;;13.80;52.30;;;;;;5031764;28;21003;-42
2022/08/12 05:56:42;;;;;;;13.35;10.80;;;13.80;53.10;;;;;;5032440;28;20256;-37
2022/08/12 05:59:13;;;;;;;13.38;10.52;;;13.80;53.40;;;;;;5031854;28;20199;-39
2022/08/12 06:01:44;;;;;;;13.10;10.05;;;13.80;53.70;;;;;;5032240;28;20200;-38
2022/08/12 06:04:15;;;;;;;13.10;10.18;;;13.90;53.90;;;;;;5032260;28;20196;-38
2022/08/12 06:06:51;;;;;;;12.75;9.77;;;13.90;53.90;;;;;;5032383;28;20224;-39
2022/08/12 06:09:25;;;;;;;12.00;9.23;;;13.90;53.90;;;;;;5031994;28;20265;-41
2022/08/12 06:11:55;;;;;;;11.50;9.57;;;14.00;54.00;;;;;;5032339;28;20773;-37
2022/08/12 06:14:26;;;;;;;12.27;9.32;;;14.00;54.00;;;;;;5032448;28;20196;-38
2022/08/12 06:16:57;;;;;;;10.48;9.38;;;14.00;54.10;;;;;;5021763;28;20212;-40
2022/08/12 06:19:28;;;;;;;10.18;9.18;;;14.00;54.10;;;;;;5015036;28;20188;-43
2022/08/12 06:22:01;;;;;;;11.18;9.13;;;14.00;54.10;;;;;;5015614;28;20189;-37
2022/08/12 06:24:32;;;;;;;13.27;8.85;;;14.00;54.10;;;;;;5032004;28;20222;-42
2022/08/12 06:27:02;;;;;;;11.38;9.25;;;14.00;54.10;;;;;;5031842;28;20212;-48
2022/08/12 06:29:34;;;;;;;10.85;9.27;;;14.00;54.10;;;;;;5032548;28;20208;-44
2022/08/12 06:32:05;;;;;;;10.35;9.15;;;14.00;54.00;;;;;;5031643;28;20640;-53
2022/08/12 06:34:36;;;;;;;11.80;9.40;;;14.00;54.10;;;;;;5031869;28;20196;-49
2022/08/12 06:37:09;;;;;;;12.45;8.77;;;14.00;54.00;;;;;;5031379;28;20216;-52
2022/08/12 06:39:39;;;;;;;10.52;8.98;;;14.00;54.00;;;;;;5031107;28;20200;-55
2022/08/12 06:45:09;;;;;;;12.15;9.90;;;14.00;54.00;;;;;;4989619;28;20718;-49
2022/08/12 06:47:40;;;;;;;10.45;9.25;;;14.00;53.90;;;;;;5022361;28;20191;-52
2022/08/12 06:50:14;;;;;;;10.75;9.75;;;14.00;53.90;;;;;;5030963;28;20231;-58
2022/08/12 06:52:47;;;;;;;10.48;9.18;;;14.00;53.90;;;;;;5030614;28;20769;-54
2022/08/12 06:55:19;;;;;;;10.73;8.88;;;14.00;53.90;;;;;;5012278;28;20569;-55
2022/08/12 06:57:56;;;;;;;10.15;9.07;;;14.00;53.90;;;;;;5012274;28;20213;-57
2022/08/12 07:00:29;;;;;;;11.43;9.15;;;13.90;54.00;;;;;;5011600;28;20200;-43
2022/08/12 07:03:00;;;;;;;10.60;8.90;;;13.90;53.90;;;;;;5012267;28;20724;-54
2022/08/12 07:05:31;;;;;;;9.82;8.27;;;13.90;54.00;;;;;;5011958;28;20200;-49
2022/08/12 07:08:14;;;;;;;10.18;8.23;;;13.90;54.00;;;;;;5011744;28;20258;-55
2022/08/12 07:10:57;;;;;;;10.05;9.05;;;13.90;54.00;;;;;;5027212;28;20215;-58
2022/08/12 07:13:31;;;;;;;9.07;8.10;;;13.90;54.10;;;;;;5031183;28;20196;-51
2022/08/12 07:16:02;;;;;;;9.82;8.60;;;13.80;54.00;;;;;;5030898;28;20216;-58
2022/08/12 07:18:32;;;;;;;8.52;7.65;;;13.90;54.10;;;;;;5031327;28;20218;-47
2022/08/12 07:21:05;;;;;;;9.45;8.23;;;13.80;54.00;;;;;;5030702;28;20230;-58
2022/08/12 07:23:40;;;;;;;9.10;7.97;;;13.80;54.10;;;;;;5031046;28;20196;-49
2022/08/12 07:26:15;;;;;;;8.45;7.45;;;13.80;54.10;;;;;;5030537;28;20303;-55
2022/08/12 07:28:46;;;;;;;9.57;8.63;;;13.70;54.10;;;;;;5031277;28;20203;-53
2022/08/12 07:31:17;;;;;;;8.10;7.07;;;13.70;54.10;;;;;;5031141;28;20703;-58
2022/08/12 07:33:48;;;;;;;8.55;7.60;;;13.70;54.10;;;;;;5031046;28;20200;-54
2022/08/12 07:36:21;;;;;;;9.00;7.60;;;13.70;54.10;;;;;;5030855;28;20260;-43
2022/08/12 07:38:54;;;;;;;8.15;7.35;;;13.70;54.20;;;;;;5030821;28;20203;-53
2022/08/12 07:41:26;;;;;;;8.25;7.45;;;13.60;54.20;;;;;;5031570;28;20204;-58
2022/08/12 07:43:58;;;;;;;7.97;7.20;;;13.60;54.20;;;;;;5031254;28;20664;-57
2022/08/12 07:46:33;;;;;;;8.18;7.35;;;13.60;54.20;;;;;;5031059;28;20235;-58
2022/08/12 07:49:05;;;;;;;9.18;7.25;;;13.60;54.30;;;;;;5031151;28;20249;-57
2022/08/12 07:51:36;;;;;;;10.82;7.53;;;13.50;54.30;;;;;;5030236;28;20273;-58
2022/08/12 07:54:11;;;;;;;7.30;6.60;;;13.60;54.30;;;;;;5029853;28;20662;-56
2022/08/12 07:56:43;;;;;;;8.05;7.15;;;13.50;54.30;;;;;;5030793;28;20740;-58
2022/08/12 07:59:14;;;;;;;7.60;6.47;;;13.50;54.30;;;;;;5031229;28;20208;-58
2022/08/12 08:01:45;;;;;;;7.72;6.90;;;13.50;54.40;;;;;;5031103;28;20688;-55
2022/08/12 08:07:02;;;;;;;7.60;6.80;;;13.50;54.40;;;;;;5031026;28;20258;-58
2022/08/12 08:09:34;;;;;;;7.72;6.47;;;13.40;54.40;;;;;;5030041;28;20259;-49
2022/08/12 08:14:54;;;;;;;7.68;6.20;;;13.40;54.50;;;;;;5031176;28;20191;-37
2022/08/12 08:17:25;;;;;;;7.45;6.75;;;13.30;54.50;;;;;;5030604;28;20697;-37
2022/08/12 08:19:56;;;;;;;7.45;6.22;;;13.30;54.50;;;;;;5030602;28;20196;-38
2022/08/12 08:22:27;;;;;;;8.75;6.80;;;13.30;54.60;;;;;;5030783;28;20557;-38
2022/08/12 08:24:59;;;;;;;7.65;6.35;;;13.30;54.60;;;;;;5030084;28;20196;-37
2022/08/12 08:27:44;;;;;;;6.53;5.88;;;13.30;54.60;;;;;;5016377;28;20224;-39
2022/08/12 08:30:15;;;;;;;8.18;6.30;;;13.20;54.60;;;;;;5011280;28;20204;-37
2022/08/12 08:32:46;;;;;;;6.53;5.75;;;13.20;54.60;;;;;;5010858;28;20249;-37
2022/08/12 08:35:17;;;;;;;6.57;5.88;;;13.20;54.60;;;;;;5010966;28;20656;-40
2022/08/12 08:37:47;;;;;;;8.10;6.90;;;13.20;54.60;;;;;;5010402;28;20200;-41
2022/08/12 08:43:07;;;;;;;7.78;6.50;;;13.20;54.70;;;;;;5030344;28;20274;-37
2022/08/12 08:45:47;;;;;;;7.18;6.00;;;13.20;54.80;;;;;;5030328;28;20234;-37
2022/08/12 08:48:17;;;;;;;6.32;5.72;;;13.20;54.80;;;;;;5029736;28;20203;-37
2022/08/12 08:50:48;;;;;;;6.70;5.72;;;13.10;54.80;;;;;;5029503;28;20227;-41
2022/08/12 08:53:19;;;;;;;6.60;5.97;;;13.10;54.80;;;;;;5030088;28;20211;-42
2022/08/12 08:55:52;;;;;;;7.60;6.03;;;13.10;54.80;;;;;;5029680;28;20212;-37
2022/08/12 08:58:23;;;;;;;6.80;5.80;;;13.10;54.90;;;;;;5030993;28;20266;-37
2022/08/12 09:00:55;;;;;;;6.43;5.82;;;13.00;54.90;;;;;;5030051;28;20199;-37
2022/08/12 09:03:25;;;;;;;5.97;5.38;;;13.00;55.00;;;;;;5033195;28;20227;-37
2022/08/12 09:05:56;;;;;;;8.15;5.55;;;13.00;54.90;;;;;;5033567;28;20223;-37
2022/08/12 09:08:27;;;;;;;6.15;5.55;;;13.00;54.90;;;;;;5033780;28;20207;-37
2022/08/12 09:13:26;;;;;;;6.45;5.82;;;13.00;54.90;;;;;;5033620;28;20224;-37
2022/08/12 09:13:48;;;;;;;6.25;5.65;;;13.00;54.90;;;;;;5033033;28;20203;-37
2022/08/12 09:16:19;;;;;;;6.10;5.32;;;13.00;54.90;;;;;;5033151;28;20213;-40
2022/08/12 09:18:50;;;;;;;5.70;4.93;;;13.00;55.00;;;;;;5033613;28;20207;-37
2022/08/12 09:21:21;;;;;;;6.63;5.45;;;12.90;54.90;;;;;;5033580;28;20207;-44
2022/08/12 09:23:56;;;;;;;6.50;4.93;;;12.90;55.00;;;;;;5033317;28;20540;-37
2022/08/12 09:26:29;;;;;;;5.78;5.28;;;12.90;55.10;;;;;;5033008;28;20216;-41
2022/08/12 09:29:00;;;;;;;7.13;5.05;;;12.90;55.10;;;;;;5033804;28;20200;-37
2022/08/12 09:31:33;;;;;;;5.68;5.00;;;12.90;55.10;;;;;;5032541;28;20223;-38
2022/08/12 09:34:05;;;;;;;6.07;4.90;;;12.80;55.10;;;;;;5013254;28;20719;-46
2022/08/12 09:36:37;;;;;;;7.30;5.10;;;12.80;55.10;;;;;;5013206;28;20217;-37
2022/08/12 09:39:08;;;;;;;5.05;4.55;;;12.80;55.10;;;;;;5013273;28;20201;-37
2022/08/12 09:45:19;;;;;;;7.13;5.32;;;12.80;55.10;;;;;;5028611;28;20284;-37
2022/08/12 09:47:27;;;;;;;5.88;4.70;;;12.80;55.10;;;;;;5033288;28;20214;-40
2022/08/12 09:49:58;;;;;;;5.28;4.78;;;12.80;55.10;;;;;;5033344;28;20589;-40
2022/08/12 09:52:28;;;;;;;5.35;4.85;;;12.80;55.10;;;;;;5032566;28;20228;-38
2022/08/12 09:55:00;;;;;;;5.57;4.72;;;12.80;55.10;;;;;;5032040;28;20196;-42
2022/08/12 09:57:34;;;;;;;5.22;4.63;;;12.70;55.20;;;;;;5032612;28;20593;-38
2022/08/12 10:00:05;;;;;;;5.03;4.13;;;12.70;55.20;;;;;;5032520;28;20605;-38
2022/08/12 10:02:38;;;;;;;5.65;4.40;;;12.70;55.60;;;;;;5033014;28;20239;-37
2022/08/12 10:05:10;;;;;;;5.15;4.10;;;12.70;55.80;;;;;;5033076;28;20232;-37
2022/08/12 10:07:41;;;;;;;5.28;4.70;;;12.80;56.00;;;;;;5033004;28;20246;-37
2022/08/12 10:10:12;;;;;;;7.18;4.60;;;12.80;55.90;;;;;;5032095;28;20204;-44
2022/08/12 10:15:33;;;;;;;5.65;4.43;;;12.80;55.80;;;;;;5032631;28;20207;-37
2022/08/12 10:18:04;;;;;;;4.57;3.83;;;12.70;55.80;;;;;;5032852;28;20196;-37
2022/08/12 10:20:35;;;;;;;5.93;4.30;;;12.70;55.80;;;;;;5025529;28;20196;-49
2022/08/12 10:23:06;;;;;;;5.05;3.90;;;12.70;55.80;;;;;;5030945;28;20208;-39
2022/08/12 10:31:12;;;;;;;4.30;3.80;;;12.70;55.80;;;;;;5032056;28;20227;-37
2022/08/12 10:33:43;;;;;;;6.22;3.85;;;12.70;55.70;;;;;;5031884;28;20203;-37
2022/08/12 10:36:14;;;;;;;5.68;4.07;;;12.70;55.80;;;;;;5032053;28;20258;-41
2022/08/12 10:38:46;;;;;;;5.28;4.18;;;12.70;55.80;;;;;;5028084;28;20215;-37
2022/08/12 10:44:11;;;;;;;4.35;3.95;;;12.60;55.70;;;;;;5011501;28;20196;-37
2022/08/12 10:46:41;;;;;;;4.13;3.72;;;12.60;55.80;;;;;;5012120;28;20315;-44
2022/08/12 10:49:12;;;;;;;5.63;4.55;;;12.60;55.80;;;;;;5012169;28;20203;-39
2022/08/12 10:51:44;;;;;;;4.40;3.55;;;12.60;55.80;;;;;;5025179;28;20794;-41
2022/08/12 10:54:15;;;;;;;4.47;3.65;;;12.60;55.80;;;;;;5031801;28;20204;-38
2022/08/12 10:56:47;;;;;;;4.82;3.50;;;12.60;55.80;;;;;;5030585;28;20211;-39
2022/08/12 10:59:21;;;;;;;4.45;3.53;;;12.50;55.70;;;;;;5031982;28;20196;-41
2022/08/12 11:01:52;;;;;;;4.28;3.60;;;12.50;55.70;;;;;;5030479;28;20651;-40
2022/08/12 11:04:23;;;;;;;4.78;3.42;;;12.50;55.70;;;;;;5031628;28;20215;-45
2022/08/12 11:06:55;;;;;;;3.88;3.47;;;12.50;55.70;;;;;;5030756;28;20216;-37
2022/08/12 11:09:30;;;;;;;5.93;3.70;;;12.50;55.70;;;;;;5030940;28;20204;-38
2022/08/12 11:12:05;;;;;;;3.65;3.00;;;12.50;55.70;;;;;;5031036;28;20305;-41
2022/08/12 11:14:41;;;;;;;4.15;3.35;;;12.50;55.70;;;;;;5030679;28;20199;-37
2022/08/12 11:17:13;;;;;;;4.32;3.90;;;12.50;55.70;;;;;;5012141;28;20219;-37
2022/08/12 11:19:45;;;;;;;3.97;3.28;;;12.50;55.80;;;;;;5011596;28;20201;-41
2022/08/12 11:22:15;;;;;;;3.33;3.03;;;12.40;55.70;;;;;;5026867;28;20192;-37
2022/08/12 11:24:46;;;;;;;5.75;3.83;;;12.40;55.70;;;;;;5029332;28;20268;-42
2022/08/12 11:27:17;;;;;;;4.40;3.38;;;12.40;55.70;;;;;;5014712;28;20579;-43
2022/08/12 11:29:49;;;;;;;3.42;3.13;;;12.40;55.70;;;;;;5011359;28;20212;-41
2022/08/12 11:32:20;;;;;;;3.63;2.97;;;12.40;55.70;;;;;;5026805;28;20230;-47
2022/08/12 11:34:51;;;;;;;4.55;3.25;;;12.30;55.70;;;;;;5030842;28;20196;-51
2022/08/12 11:37:21;;;;;;;4.53;3.25;;;12.40;55.70;;;;;;5014703;28;20710;-41
2022/08/12 11:39:52;;;;;;;4.75;3.25;;;12.40;55.70;;;;;;5010387;28;20205;-40
2022/08/12 11:42:23;;;;;;;3.60;3.28;;;12.30;55.60;;;;;;5027215;28;20196;-43
2022/08/12 11:44:55;;;;;;;3.72;2.88;;;12.30;55.60;;;;;;5030385;28;20196;-36
2022/08/12 11:47:26;;;;;;;3.78;3.30;;;12.30;55.70;;;;;;5030729;28;20574;-52
2022/08/12 11:49:57;;;;;;;3.88;3.00;;;12.30;55.60;;;;;;5029976;28;20196;-42
2022/08/12 11:52:27;;;;;;;4.25;3.00;;;12.30;55.60;;;;;;5029475;28;20232;-37
2022/08/12 11:54:58;;;;;;;3.78;2.85;;;12.30;55.70;;;;;;5029190;28;20666;-38
2022/08/12 11:57:29;;;;;;;4.13;2.80;;;12.30;56.20;;;;;;5030056;28;20216;-53
2022/08/12 12:00:02;;;;;;;4.22;2.63;;;12.30;55.70;;;;;;5029187;28;20196;-38
2022/08/12 12:02:32;;;;;;;3.80;2.90;;;12.20;55.60;;;;;;5029187;28;20192;-38
2022/08/12 12:05:03;;;;;;;2.80;2.50;;;12.20;55.60;;;;;;5028993;28;20207;-44
2022/08/12 12:07:34;;;;;;;3.38;2.92;;;12.20;55.70;;;;;;5029224;28;20310;-39
2022/08/12 12:10:05;;;;;;;3.50;2.58;;;12.20;55.60;;;;;;5029467;28;20670;-41
2022/08/12 12:12:36;;;;;;;3.38;2.55;;;12.20;55.60;;;;;;5029232;28;20228;-37
2022/08/12 12:15:09;;;;;;;4.05;2.97;;;12.20;55.60;;;;;;5028885;28;20204;-37
2022/08/12 12:17:41;;;;;;;3.75;2.70;;;12.20;55.60;;;;;;5029215;28;20584;-37
2022/08/12 12:20:13;;;;;;;3.08;2.35;;;12.20;55.60;;;;;;5029284;28;20200;-37
2022/08/12 12:22:45;;;;;;;3.60;2.78;;;12.20;55.60;;;;;;5028929;28;20192;-46
2022/08/12 12:25:15;;;;;;;3.10;2.63;;;12.10;55.60;;;;;;5028548;28;20679;-40
2022/08/12 12:27:53;;;;;;;2.97;2.47;;;12.20;55.60;;;;;;5028924;28;20207;-41
2022/08/12 12:30:26;;;;;;;5.15;2.78;;;12.10;55.60;;;;;;5028646;28;20203;-40
2022/08/12 12:32:56;;;;;;;2.92;2.58;;;12.10;55.60;;;;;;5019287;28;20220;-44
2022/08/12 12:35:27;;;;;;;2.65;2.40;;;12.10;55.60;;;;;;5009053;28;20704;-38
2022/08/12 12:37:59;;;;;;;2.63;2.33;;;12.10;55.60;;;;;;5011542;28;20200;-37
2022/08/12 12:40:30;;;;;;;3.28;2.40;;;12.10;55.70;;;;;;5013119;28;20197;-40
2022/08/12 12:43:02;;;;;;;3.15;2.50;;;12.10;55.70;;;;;;5013377;28;20196;-38
2022/08/12 12:45:35;;;;;;;3.45;2.60;;;12.10;55.70;;;;;;5025740;28;20192;-37
2022/08/12 12:48:11;;;;;;;2.72;2.38;;;12.10;55.70;;;;;;5032923;28;20664;-39
2022/08/12 12:50:43;;;;;;;3.88;2.58;;;12.10;55.70;;;;;;5033174;28;20202;-39
2022/08/12 12:53:17;;;;;;;3.33;2.58;;;12.10;55.60;;;;;;5032748;28;20603;-40
2022/08/12 12:55:47;;;;;;;2.30;2.10;;;12.00;55.60;;;;;;5032839;28;20223;-37
2022/08/12 12:58:19;;;;;;;3.58;2.58;;;12.10;55.60;;;;;;5032928;28;20196;-42
2022/08/12 13:00:52;;;;;;;3.35;2.55;;;12.00;55.60;;;;;;5032790;28;20601;-37
2022/08/12 13:03:23;;;;;;;4.93;2.70;;;12.00;55.60;;;;;;5032075;28;20539;-41
2022/08/12 13:05:55;;;;;;;2.90;1.92;;;12.00;55.60;;;;;;5032080;28;20227;-38
2022/08/12 13:08:29;;;;;;;3.30;2.38;;;12.00;55.60;;;;;;5032349;28;20561;-37
2022/08/12 13:11:02;;;;;;;2.78;2.40;;;12.00;55.60;;;;;;5032115;28;20200;-41
2022/08/12 13:13:35;;;;;;;4.38;2.35;;;12.00;55.60;;;;;;5031771;28;20227;-37
2022/08/12 13:16:11;;;;;;;2.38;2.10;;;12.00;55.60;;;;;;5031351;28;20220;-39
2022/08/12 13:18:41;;;;;;;3.25;2.15;;;11.90;55.60;;;;;;5031595;28;20203;-40
2022/08/12 13:21:16;;;;;;;3.67;2.38;;;11.90;55.60;;;;;;5031987;28;20279;-42
2022/08/12 13:23:47;;;;;;;3.58;2.17;;;11.90;55.60;;;;;;5032136;28;20712;-37
2022/08/12 13:26:18;;;;;;;2.63;2.22;;;11.90;55.60;;;;;;5017009;28;20224;-37
2022/08/12 13:28:52;;;;;;;2.67;2.05;;;11.90;55.60;;;;;;5032256;28;20196;-37
2022/08/12 13:31:24;;;;;;;3.00;2.28;;;11.90;55.60;;;;;;5032126;28;20200;-36
2022/08/12 13:33:55;;;;;;;3.08;2.53;;;11.90;55.60;;;;;;5032206;28;20749;-43
2022/08/12 13:36:27;;;;;;;2.72;2.03;;;11.90;55.60;;;;;;5031893;28;20227;-36
2022/08/12 13:38:58;;;;;;;2.85;2.25;;;11.90;55.50;;;;;;5031467;28;20196;-39
2022/08/12 13:41:34;;;;;;;2.38;2.13;;;11.90;55.50;;;;;;5031590;28;20202;-38
2022/08/12 13:44:06;;;;;;;2.63;2.08;;;11.90;55.60;;;;;;5031642;28;20203;-44
2022/08/12 13:46:42;;;;;;;2.20;2.00;;;11.90;55.60;;;;;;5031588;28;20247;-37
2022/08/12 13:49:13;;;;;;;2.15;1.60;;;11.90;55.60;;;;;;5030612;28;20206;-37
2022/08/12 13:51:49;;;;;;;1.83;1.60;;;11.80;55.50;;;;;;5031542;28;20200;-40
2022/08/12 13:54:20;;;;;;;2.55;1.95;;;11.80;55.50;;;;;;5030878;28;20270;-39
2022/08/12 13:56:51;;;;;;;2.40;1.88;;;11.80;55.60;;;;;;5030839;28;20227;-37
2022/08/12 13:59:21;;;;;;;2.03;1.83;;;11.80;55.60;;;;;;5030967;28;20207;-47
2022/08/12 14:01:54;;;;;;;3.45;2.00;;;11.80;55.60;;;;;;5031040;28;20651;-37
2022/08/12 14:04:25;;;;;;;2.58;1.70;;;11.80;55.60;;;;;;5031534;28;20196;-43
2022/08/12 14:06:57;;;;;;;2.05;1.80;;;11.80;55.60;;;;;;5031339;28;20671;-38
2022/08/12 14:09:28;;;;;;;2.20;1.73;;;11.80;55.60;;;;;;5031601;28;20296;-40
2022/08/12 14:11:59;;;;;;;1.75;1.63;;;11.80;55.60;;;;;;5031481;28;20197;-38
2022/08/12 14:14:31;;;;;;;2.83;1.70;;;11.80;55.50;;;;;;5031452;28;20674;-38
2022/08/12 14:17:08;;;;;;;1.70;1.60;;;11.80;55.50;;;;;;5011647;28;20215;-39
2022/08/12 14:20:12;;;;;;;2.47;1.70;;;11.80;55.50;;;;;;5011063;28;20291;-37
2022/08/12 14:22:30;;;;;;;2.75;1.60;;;11.80;55.50;;;;;;5011129;28;20201;-37
2022/08/12 14:25:02;;;;;;;1.83;1.40;;;11.70;55.40;;;;;;5011530;28;20283;-37
2022/08/12 14:27:32;;;;;;;1.77;1.67;;;11.70;55.50;;;;;;5025070;28;20216;-37
2022/08/12 14:30:04;;;;;;;2.83;1.67;;;11.70;55.50;;;;;;5030536;28;20823;-37
2022/08/12 14:32:37;;;;;;;1.92;1.58;;;11.70;55.50;;;;;;5030687;28;20224;-37
2022/08/12 14:35:09;;;;;;;2.00;1.80;;;11.70;55.50;;;;;;5030364;28;20200;-37
2022/08/12 14:37:43;;;;;;;1.73;1.40;;;11.70;55.50;;;;;;5029488;28;20189;-37
2022/08/12 14:40:14;;;;;;;2.10;1.80;;;11.60;55.50;;;;;;5011139;28;20200;-37
2022/08/12 14:42:45;;;;;;;1.95;1.50;;;11.70;55.50;;;;;;5011068;28;20648;-37
2022/08/12 14:45:16;;;;;;;2.00;1.65;;;11.60;55.40;;;;;;5015713;28;20192;-38
2022/08/12 14:47:56;;;;;;;2.00;1.60;;;11.60;55.40;;;;;;5031040;28;20204;-39
2022/08/12 14:50:26;;;;;;;1.63;1.52;;;11.60;55.40;;;;;;5030730;28;20291;-37
2022/08/12 14:52:57;;;;;;;1.77;1.67;;;11.60;55.40;;;;;;5029426;28;20557;-37
2022/08/12 14:55:32;;;;;;;1.90;1.65;;;11.60;56.00;;;;;;5030343;28;20200;-42
2022/08/12 14:58:03;;;;;;;1.98;1.60;;;11.60;55.40;;;;;;5031073;28;20214;-38
2022/08/12 15:03:26;;;;;;;1.70;1.60;;;11.60;55.40;;;;;;5031205;28;20207;-43